Latest Weather Observations for Bathurst Airport

IDN60801

Issued at 10:33 pm EST Sunday 24 July 2016 (issued every 30 minutes, with the page automatically refreshed every 10 minutes)

About weather observations | Map of weather stations | Latest weather observations for NSW | Other Formats
Station Details ID: 063291 Name: BATHURST AIRPORT AWS Lat: -33.41 Lon: 149.65 Height: 744.5 m
Data from the previous 72 hours. | See also: Recent months at Bathurst Airport
Date/Time
EST
Temp
°C
App
Temp
°C
Dew
Point
°C
Rel
Hum
%
Delta-T
°C
Wind Press
QNH
hPa
Press
MSL
hPa
Rain since
9am
mm
Dir  Spd
km/h
Gust
km/h
Spd
kts
Gust
kts
24/10:30pm 5.3 0.7 3.8 90 0.7 NNW 17 20 9 11 1013.0 1013.9 0.0
24/10:00pm 4.9 -0.3 3.4 90 0.7 N 20 26 11 14 1013.0 1013.9 0.0
24/09:30pm 4.5 -0.6 2.8 89 0.7 N 19 24 10 13 1013.2 1014.0 0.0
24/09:00pm 4.7 0.0 3.0 89 0.7 N 17 20 9 11 1013.4 1014.2 0.0
24/08:30pm 5.0 -0.1 3.0 87 0.9 N 19 24 10 13 1013.5 1014.3 0.0
24/08:00pm 5.1 -0.2 2.8 85 1.0 N 20 26 11 14 1013.0 1013.9 0.0
24/07:30pm 5.2 -0.7 2.0 80 1.3 N 22 26 12 14 1013.3 1014.1 0.0
24/07:00pm 5.2 -0.1 1.7 78 1.5 N 19 22 10 12 1013.6 1014.4 0.0
24/06:30pm 5.3 0.0 1.8 78 1.5 NW 19 24 10 13 1013.6 1014.4 0.0
24/06:00pm 5.6 0.0 1.3 74 1.8 NW 20 30 11 16 1013.2 1014.0 0.0
24/05:30pm 5.6 0.1 0.8 71 2.0 NW 19 22 10 12 1012.9 1013.8 0.0
24/05:00pm 5.6 0.6 1.3 74 1.8 N 17 20 9 11 1012.6 1013.4 0.0
24/04:30pm 5.7 0.6 0.9 71 2.0 NNW 17 22 9 12 1012.3 1013.1 0.0
24/04:00pm 6.3 0.7 -0.2 63 2.6 NW 19 24 10 13 1012.2 1013.0 0.0
24/03:30pm 6.4 0.8 0.1 64 2.6 WNW 19 24 10 13 1012.6 1013.4 0.0
24/03:00pm 6.5 0.7 -0.2 62 2.7 WNW 20 28 11 15 1012.8 1013.7 0.0
24/02:30pm 6.7 2.0 0.8 66 2.5 WNW 15 20 8 11 1013.2 1014.0 0.0
24/02:00pm 7.0 2.3 0.7 64 2.6 NW 15 20 8 11 1013.2 1014.0 0.0
24/01:30pm 6.3 1.7 1.6 72 2.0 WNW 15 20 8 11 1013.8 1014.7 0.0
24/01:00pm 5.2 0.7 0.0 69 2.1 W 13 19 7 10 1014.6 1015.4 0.0
24/12:30pm 5.0 1.0 0.2 71 1.9 NNW 11 15 6 8 1014.7 1015.5 0.0
24/12:00pm 4.1 0.7 -0.7 71 1.9 N 7 11 4 6 1015.0 1015.9 0.0
24/11:30am 3.9 -0.4 0.9 81 1.2 N 13 15 7 8 1015.5 1016.4 0.0
24/11:00am 3.3 -0.7 0.7 83 1.0 N 11 13 6 7 1016.3 1017.2 0.0
24/10:30am 2.5 -1.2 0.1 84 0.9 N 9 11 5 6 1017.0 1017.9 0.0
24/10:00am 2.1 -1.2 0.2 87 0.7 NNW 7 11 4 6 1017.1 1018.0 0.0
24/09:30am 1.5 -1.9 -0.3 88 0.7 N 7 9 4 5 1016.5 1017.4 0.0
24/09:00am 0.9 -1.5 -0.4 91 0.5 N 2 7 1 4 1016.4 1017.3 0.2
24/08:30am 0.1 -2.3 -0.2 98 0.1 N 2 7 1 4 1016.2 1017.1 0.2
24/08:00am -0.4 -3.6 -0.8 97 0.1 NE 6 7 3 4 1015.7 1016.6 0.2
24/07:30am 0.1 -3.2 -0.9 93 0.4 NNE 6 7 3 4 1014.9 1015.7 0.2
24/07:00am 0.0 -2.5 -1.3 91 0.5 ENE 2 7 1 4 1014.9 1015.7 0.2
24/06:30am -0.5 -3.9 -1.9 90 0.5 N 6 7 3 4 1014.4 1015.3 0.2
24/06:00am 0.5 -2.1 -2.0 83 0.9 SSW 2 6 1 3 1014.3 1015.2 0.2
24/05:30am 0.4 -3.0 -2.0 84 0.9 SW 6 9 3 5 1014.1 1015.0 0.2
24/05:00am 0.4 -1.9 -2.5 81 1.1 CALM 0 0 0 0 1014.2 1015.1 0.2
24/04:30am 0.2 -3.3 -2.5 82 1.0 N 6 7 3 4 1014.7 1015.5 0.2
24/04:00am -0.2 -3.7 -2.9 82 0.9 NNW 6 7 3 4 1014.4 1015.3 0.2
24/03:30am 0.6 -2.5 -3.0 77 1.3 W 4 9 2 5 1013.7 1014.5 0.2
24/03:00am 0.8 -2.7 -3.1 75 1.4 SSW 6 7 3 4 1013.7 1014.5 0.2
24/02:30am 0.9 -2.8 -3.2 74 1.5 SW 7 9 4 5 1014.3 1015.2 0.2
24/02:00am 0.8 -3.3 -3.1 75 1.4 SW 9 13 5 7 1014.3 1015.2 0.2
24/01:30am 0.9 -3.5 -2.7 77 1.3 WSW 11 15 6 8 1014.7 1015.5 0.2
24/01:00am 1.0 -3.0 -2.4 78 1.3 W 9 11 5 6 1015.2 1016.1 0.2
24/12:30am 1.5 -0.8 -2.4 75 1.4 CALM 0 0 0 0 1015.2 1016.1 0.2
24/12:00am 2.1 -2.3 -2.2 73 1.6 SW 11 15 6 8 1015.1 1016.0 0.2
 
Date/Time
EST
Temp
°C
App
Temp
°C
Dew
Point
°C
Rel
Hum
%
Delta-T
°C
Wind Press
QNH
hPa
Press
MSL
hPa
Rain since
9am
mm
Dir  Spd
km/h
Gust
km/h
Spd
kts
Gust
kts
23/11:30pm 2.7 -3.1 -1.5 74 1.6 WSW 19 24 10 13 1015.2 1016.1 0.2
23/11:00pm 3.0 -2.9 -1.0 75 1.5 WSW 20 28 11 15 1015.2 1016.1 0.2
23/10:30pm 3.7 -2.8 0.1 77 1.4 WSW 24 32 13 17 1015.3 1016.2 0.2
23/10:00pm 4.4 -2.1 0.6 76 1.5 WSW 24 30 13 16 1014.9 1015.7 0.2
23/09:30pm 4.3 -1.3 1.3 81 1.2 WSW 20 24 11 13 1014.8 1015.6 0.2
23/09:00pm 4.4 -2.2 1.8 83 1.1 WSW 26 37 14 20 1014.2 1015.1 0.2
23/08:30pm 4.9 -1.1 1.0 76 1.6 WSW 22 32 12 17 1013.8 1014.7 0.0
23/08:00pm 4.9 -1.5 1.2 77 1.5 WSW 24 37 13 20 1013.9 1014.8 0.0
23/07:30pm 5.5 -0.9 0.9 72 1.9 WSW 24 33 13 18 1014.0 1014.9 0.0
23/07:00pm 5.4 -0.2 1.5 76 1.6 W 20 26 11 14 1013.6 1014.4 0.0
23/06:30pm 5.7 1.6 2.0 77 1.6 WNW 13 28 7 15 1013.0 1013.9 0.0
23/06:00pm 5.3 0.0 1.8 78 1.5 W 19 32 10 17 1012.8 1013.7 0.0
23/05:30pm 5.4 -0.1 1.9 78 1.5 W 20 32 11 17 1012.1 1012.9 0.0
23/05:00pm 6.1 0.4 2.6 78 1.5 W 22 28 12 15 1011.6 1012.5 0.0
23/04:30pm 5.8 -1.8 2.6 80 1.4 WSW 32 44 17 24 1011.4 1012.2 0.0
23/04:00pm 7.8 2.6 3.5 74 1.9 WSW 20 28 11 15 1011.2 1012.0 0.0
23/03:30pm 7.1 -0.5 2.6 73 2.0 WSW 32 44 17 24 1010.6 1011.4 0.0
23/03:00pm 7.4 0.3 3.8 78 1.6 WSW 30 39 16 21 1010.5 1011.3 0.0
23/02:30pm 8.5 1.2 4.7 77 1.8 W 32 44 17 24 1009.9 1010.7 0.0
23/02:00pm 8.5 2.4 4.9 78 1.7 W 26 35 14 19 1009.7 1010.5 0.0
23/01:30pm 8.4 1.5 4.4 76 1.8 W 30 43 16 23 1009.6 1010.4 0.0
23/01:00pm 6.7 -0.3 3.9 82 1.3 W 30 43 16 23 1009.5 1010.3 0.0
23/12:30pm 8.1 0.4 3.2 71 2.2 WNW 33 46 18 25 1009.4 1010.2 0.0
23/12:00pm 7.2 -0.7 2.1 70 2.2 WNW 33 46 18 25 1009.6 1010.4 0.0
23/11:30am 6.8 -1.5 2.3 73 1.9 W 35 46 19 25 1009.5 1010.3 0.0
23/11:00am 6.6 -1.3 2.5 75 1.8 W 33 41 18 22 1009.4 1010.2 0.0
23/10:30am 6.5 -1.7 2.9 78 1.6 W 35 44 19 24 1009.2 1009.9 0.0
23/10:00am 6.4 -1.5 2.1 74 1.8 W 33 43 18 23 1009.1 1009.8 0.0
23/09:30am 6.6 -1.4 1.7 71 2.1 WNW 33 48 18 26 1008.7 1009.5 0.0
23/09:10am 6.8 -1.0 1.5 69 2.2 W 32 50 17 27 1008.4 1009.2 0.0
23/09:00am 6.3 -1.7 1.8 73 1.9 W 33 43 18 23 1008.4 1009.2 10.4
23/08:30am 6.2 -2.9 1.9 74 1.8 W 39 52 21 28 1008.0 1008.7 10.4
23/08:00am 5.8 -0.4 2.3 78 1.5 W 24 35 13 19 1007.6 1008.3 10.4
23/07:30am 5.8 -3.0 1.2 72 1.9 WSW 37 50 20 27 1007.0 1007.8 10.4
23/07:02am 6.3 -1.6 2.2 75 1.8 W 33 52 18 28 1006.6 1007.3 10.4
23/07:00am 6.2 -1.5 2.5 77 1.6 W 32 44 17 24 1006.5 1007.2 10.4
23/06:30am 6.4 -2.8 1.3 70 2.1 W 39 57 21 31 1006.0 1006.7 10.4
23/06:00am 6.8 -2.7 1.5 69 2.3 W 41 57 22 31 1005.1 1005.8 10.4
23/05:34am 7.7 -3.1 2.0 67 2.5 W 48 74 26 40 1004.6 1005.2 10.4
23/05:30am 7.7 -2.5 3.0 72 2.1 W 46 63 25 34 1004.4 1005.1 10.4
23/05:13am 8.0 -0.2 4.6 79 1.6 W 37 56 20 30 1004.1 1004.8 10.4
23/05:10am 7.7 0.3 5.2 84 1.2 W 33 43 18 23 1004.1 1004.8 10.4
23/05:00am 7.3 -1.4 6.1 92 0.6 W 41 56 22 30 1004.0 1004.7 10.4
23/04:47am 8.0 -0.7 5.8 86 1.0 W 41 56 22 30 1003.8 1004.5 10.0
23/04:30am 8.8 0.2 4.6 75 1.9 W 39 57 21 31 1003.5 1004.1 9.8
23/04:27am 8.6 0.0 4.6 76 1.8 W 39 57 21 31 1003.5 1004.1 9.8
23/04:00am 9.0 0.4 4.4 73 2.1 W 39 56 21 30 1003.4 1004.0 9.8
23/03:30am 9.4 -0.2 4.4 71 2.3 W 44 65 24 35 1003.2 1003.8 9.8
23/03:03am 9.8 0.2 4.6 70 2.4 W 44 65 24 35 1003.1 1003.7 9.8
23/03:00am 9.8 0.5 4.8 71 2.4 W 43 59 23 32 1003.1 1003.7 9.8
23/02:32am 10.2 0.9 5.0 70 2.5 W 43 61 23 33 1002.7 1003.4 9.8
23/02:30am 10.2 0.9 5.0 70 2.5 W 43 57 23 31 1002.8 1003.5 9.8
23/02:05am 10.5 1.4 5.9 73 2.2 W 43 61 23 33 1002.7 1003.4 9.8
23/02:00am 10.6 0.9 5.6 71 2.4 W 46 61 25 33 1002.6 1003.3 9.8
23/01:30am 11.2 1.9 4.9 65 3.0 W 43 61 23 33 1002.5 1003.2 9.8
23/01:07am 11.7 2.6 5.8 67 2.9 W 43 63 23 34 1002.3 1002.9 9.8
23/01:00am 11.4 2.9 6.9 74 2.2 W 41 54 22 29 1002.4 1003.1 9.8
23/12:32am 11.1 1.3 7.0 76 2.0 W 48 67 26 36 1002.7 1003.4 9.8
23/12:30am 10.9 1.9 7.2 78 1.8 W 44 67 24 36 1002.7 1003.4 9.8
23/12:22am 10.4 1.8 8.2 86 1.1 W 43 61 23 33 1002.9 1003.6 9.8
23/12:10am 11.0 2.3 9.8 92 0.6 WSW 46 59 25 32 1002.8 1003.5 9.4
23/12:00am 11.2 2.8 11.0 99 0.1 WSW 46 69 25 37 1002.4 1003.1 9.0
 
Date/Time
EST
Temp
°C
App
Temp
°C
Dew
Point
°C
Rel
Hum
%
Delta-T
°C
Wind Press
QNH
hPa
Press
MSL
hPa
Rain since
9am
mm
Dir  Spd
km/h
Gust
km/h
Spd
kts
Gust
kts
22/11:50pm 13.2 6.7 11.6 90 0.9 WNW 37 61 20 33 1002.2 1002.8 8.0
22/11:49pm 14.3 8.6 14.1 99 0.1 WNW 37 52 20 28 1002.2 1002.8 8.0
22/11:45pm 14.7 9.2 14.7 100 0.0 WNW 37 52 20 28 1002.1 1002.7 7.4
22/11:40pm 14.9 9.8 14.7 99 0.1 WNW 35 46 19 25 1001.8 1002.4 6.6
22/11:30pm 14.8 8.0 14.8 100 0.0 WNW 44 63 24 34 1001.9 1002.5 6.6
22/11:28pm 14.9 8.1 14.9 100 0.0 WNW 44 63 24 34 1001.7 1002.3 6.4
22/11:17pm 14.6 7.3 14.6 100 0.0 NW 46 61 25 33 1001.8 1002.4 5.2
22/11:00pm 15.5 5.9 13.9 90 0.9 NW 57 85 31 46 1000.9 1001.5 2.2
22/10:51pm 16.2 6.8 14.0 87 1.3 NW 56 78 30 42 1000.7 1001.3 1.8
22/10:30pm 16.5 7.0 13.6 83 1.7 NNW 56 85 30 46 1000.7 1001.3 1.4
22/10:06pm 17.1 8.3 13.4 79 2.2 NNW 52 70 28 38 1001.1 1001.7 1.4
22/10:00pm 16.9 8.5 13.4 80 2.1 NNW 50 63 27 34 1001.1 1001.7 1.4
22/09:30pm 16.8 8.9 13.9 83 1.7 NNW 48 67 26 36 1001.7 1002.3 1.4
22/09:15pm 16.9 9.4 13.8 82 1.8 NNW 46 65 25 35 1001.9 1002.5 1.4
22/09:00pm 16.8 9.7 13.9 83 1.7 NNW 44 61 24 33 1002.1 1002.7 1.4
22/08:39pm 16.9 9.0 13.8 82 1.8 NNW 48 67 26 36 1002.6 1003.3 1.4
22/08:30pm 17.0 8.3 13.7 81 1.9 NNW 52 69 28 37 1002.9 1003.6 1.4
22/08:01pm 16.7 9.7 14.2 85 1.5 NNW 44 63 24 34 1003.6 1004.3 1.4
22/08:00pm 16.6 9.2 14.2 86 1.4 NNW 46 63 25 34 1003.5 1004.1 1.4
22/07:48pm 16.4 9.5 14.1 86 1.4 NNW 43 61 23 33 1003.2 1003.8 1.4
22/07:30pm 16.4 9.5 14.1 86 1.4 NNW 43 59 23 32 1003.5 1004.1 1.4
22/07:23pm 16.3 9.7 13.8 85 1.5 NNW 41 59 22 32 1003.6 1004.3 1.4
22/07:00pm 16.2 10.1 14.0 87 1.3 NNW 39 48 21 26 1004.2 1004.9 1.4
22/06:30pm 15.7 9.8 13.7 88 1.2 NNW 37 48 20 26 1004.3 1005.0 1.4
22/06:12pm 15.8 11.7 13.8 88 1.2 NNW 28 46 15 25 1004.4 1005.1 1.4
22/06:00pm 15.6 11.4 13.6 88 1.2 NNW 28 37 15 20 1004.0 1004.7 1.4
22/05:30pm 15.8 10.8 13.5 86 1.3 NW 32 43 17 23 1005.0 1005.7 1.4
22/05:00pm 15.9 10.8 13.6 86 1.3 NW 33 43 18 23 1005.0 1005.7 1.4
22/04:30pm 16.3 11.7 13.4 83 1.7 NW 30 41 16 22 1005.4 1006.1 1.4
22/04:00pm 16.6 11.1 13.7 83 1.7 NW 35 48 19 26 1005.5 1006.2 1.4
22/03:33pm 16.7 12.7 14.0 84 1.6 NW 28 46 15 25 1005.4 1006.1 1.4
22/03:30pm 16.4 12.6 14.6 89 1.1 NW 28 37 15 20 1005.7 1006.4 1.4
22/03:00pm 16.1 13.4 15.6 97 0.3 NW 24 35 13 19 1006.1 1006.8 1.4
22/02:46pm 15.4 12.6 15.4 100 0.0 NW 24 33 13 18 1006.6 1007.3 1.4
22/02:30pm 15.2 9.8 15.0 99 0.1 NW 37 56 20 30 1006.7 1007.4 1.4
22/02:25pm 15.2 10.4 14.7 97 0.3 NW 33 56 18 30 1006.6 1007.3 1.0
22/02:24pm 15.5 10.9 14.7 95 0.5 NW 32 56 17 30 1006.6 1007.3 0.8
22/02:00pm 16.3 11.6 14.8 91 0.9 NNW 33 44 18 24 1006.7 1007.4 0.2
22/01:30pm 17.0 11.7 14.3 84 1.6 NW 35 46 19 25 1007.2 1008.0 0.2
22/01:06pm 17.2 12.5 15.9 92 0.8 NW 35 44 19 24 1007.9 1008.6 0.2
22/01:00pm 17.2 12.7 15.5 90 1.0 NW 33 43 18 23 1008.0 1008.7 0.2
22/12:30pm 16.7 13.1 16.2 97 0.3 NNW 30 41 16 22 1008.6 1009.4 0.2
22/12:00pm 15.5 12.0 15.5 100 0.0 NNW 28 39 15 21 1009.5 1010.3 0.2
22/11:30am 15.2 13.1 15.2 100 0.0 NW 20 30 11 16 1010.4 1011.2 0.0
22/11:00am 14.9 12.7 14.9 100 0.0 NNW 20 28 11 15 1010.8 1011.6 0.0
22/10:30am 14.0 10.7 14.0 100 0.0 N 24 30 13 16 1011.2 1012.0 0.0
22/10:00am 14.0 10.3 14.0 100 0.0 NNW 26 35 14 19 1012.0 1012.8 0.0
22/09:30am 13.3 9.4 13.3 100 0.0 N 26 32 14 17 1012.1 1012.9 0.0
22/09:13am 13.1 9.1 13.1 100 0.0 NNW 26 33 14 18 1012.4 1013.2 0.0
22/09:00am 13.0 9.4 13.0 100 0.0 NNW 24 30 13 16 1012.5 1013.3 0.2
22/08:30am 12.3 8.5 12.3 100 0.0 NNW 24 30 13 16 1012.7 1013.6 0.0
22/08:00am 11.8 8.2 11.8 100 0.0 N 22 28 12 15 1012.7 1013.6 0.0
22/07:30am 11.6 8.3 11.6 100 0.0 NNW 20 24 11 13 1012.9 1013.8 0.0
22/07:18am 11.6 8.3 11.6 100 0.0 NNW 20 26 11 14 1013.2 1014.0 0.0
22/07:00am 11.7 8.1 11.7 100 0.0 N 22 26 12 14 1013.0 1013.9 0.0
22/06:30am 11.1 8.2 11.1 100 0.0 N 17 22 9 12 1013.2 1014.0 0.0
22/06:00am 11.1 8.2 11.1 100 0.0 N 17 22 9 12 1013.0 1013.9 0.0
22/05:32am 10.1 7.3 10.1 100 0.0 N 15 19 8 10 1013.4 1014.2 0.0
22/05:30am 10.3 7.2 10.3 100 0.0 N 17 19 9 10 1013.4 1014.2 0.0
22/05:14am 9.9 7.1 9.9 100 0.0 N 15 19 8 10 1013.6 1014.4 0.0
22/05:06am 9.5 6.9 9.5 100 0.0 N 13 17 7 9 1013.7 1014.5 0.0
22/05:00am 9.7 7.2 9.7 100 0.0 N 13 17 7 9 1013.8 1014.7 0.0
22/04:54am 9.4 6.8 9.4 100 0.0 N 13 15 7 8 1013.8 1014.7 0.0
22/04:53am 9.5 6.9 9.5 100 0.0 N 13 15 7 8 1013.8 1014.7 0.0
22/04:40am 9.6 7.5 9.6 100 0.0 N 11 13 6 7 1013.7 1014.5 0.0
22/04:30am 10.2 8.2 10.2 100 0.0 N 11 15 6 8 1013.7 1014.5 0.0
22/04:00am 10.6 8.3 10.6 100 0.0 N 13 17 7 9 1014.1 1015.0 0.0
22/03:30am 10.0 8.3 10.0 100 0.0 NNE 9 11 5 6 1014.4 1015.3 0.0
22/03:00am 10.5 9.6 10.5 100 0.0 NNE 6 7 3 4 1015.2 1016.1 0.0
22/02:30am 10.1 9.0 10.1 100 0.0 NNE 6 6 3 3 1015.7 1016.6 0.0
22/02:00am 9.5 8.1 9.5 100 0.0 NNE 7 9 4 5 1015.8 1016.7 0.0
22/01:44am 9.0 7.1 9.0 100 0.0 NE 9 11 5 6 1015.8 1016.7 0.0
22/01:30am 8.5 6.1 8.5 100 0.0 NNE 11 13 6 7 1016.1 1016.9 0.0
22/01:00am 8.9 7.0 8.9 100 0.0 NNE 9 11 5 6 1016.2 1017.1 0.0
22/12:30am 9.2 7.3 9.2 100 0.0 NNE 9 9 5 5 1016.4 1017.3 0.0
22/12:00am 9.2 7.3 9.2 100 0.0 NNE 9 11 5 6 1017.1 1018.0 0.0
 
Date/Time
EST
Temp
°C
App
Temp
°C
Dew
Point
°C
Rel
Hum
%
Delta-T
°C
Wind Press
QNH
hPa
Press
MSL
hPa
Rain since
9am
mm
Dir  Spd
km/h
Gust
km/h
Spd
kts
Gust
kts
21/11:30pm 9.6 8.2 9.6 100 0.0 NNE 7 7 4 4 1017.0 1017.9 0.0
21/11:00pm 9.4 8.2 9.4 100 0.0 NNE 6 7 3 4 1017.2 1018.2 0.0

Other Formats:

Comma delimited format used in spreadsheet applications
http://www.bom.gov.au/fwo/IDN60801/IDN60801.94729.axf

JavaScript Object Notation format (JSON) in row-major order
http://www.bom.gov.au/fwo/IDN60801/IDN60801.94729.json